sensor_id;sensor_type;location;lat;lon;timestamp;temperature;humidity
3246;DHT22;1635;48.000;10.582;2022-10-31T00:01:33;9.10;99.90
3246;DHT22;1635;48.000;10.582;2022-10-31T00:04:01;9.10;99.90
3246;DHT22;1635;48.000;10.582;2022-10-31T00:06:29;9.10;99.90
3246;DHT22;1635;48.000;10.582;2022-10-31T00:09:00;9.20;99.90
3246;DHT22;1635;48.000;10.582;2022-10-31T00:11:29;9.20;99.90
3246;DHT22;1635;48.000;10.582;2022-10-31T00:13:58;9.10;99.90
3246;DHT22;1635;48.000;10.582;2022-10-31T00:16:28;9.10;99.90
3246;DHT22;1635;48.000;10.582;2022-10-31T00:18:59;9.00;99.90
3246;DHT22;1635;48.000;10.582;2022-10-31T00:21:28;8.90;99.90
3246;DHT22;1635;48.000;10.582;2022-10-31T00:23:58;9.00;99.90
3246;DHT22;1635;48.000;10.582;2022-10-31T00:26:28;8.90;99.90
3246;DHT22;1635;48.000;10.582;2022-10-31T00:28:59;8.80;99.90
3246;DHT22;1635;48.000;10.582;2022-10-31T00:31:27;8.70;99.90
3246;DHT22;1635;48.000;10.582;2022-10-31T00:33:56;8.70;99.90
3246;DHT22;1635;48.000;10.582;2022-10-31T00:36:27;8.60;99.90
3246;DHT22;1635;48.000;10.582;2022-10-31T00:38:55;8.60;99.90
3246;DHT22;1635;48.000;10.582;2022-10-31T00:41:24;8.60;99.90
3246;DHT22;1635;48.000;10.582;2022-10-31T00:43:52;8.60;99.90
3246;DHT22;1635;48.000;10.582;2022-10-31T00:46:19;8.60;99.90
3246;DHT22;1635;48.000;10.582;2022-10-31T00:48:50;8.60;99.90
3246;DHT22;1635;48.000;10.582;2022-10-31T00:51:17;8.70;99.90
3246;DHT22;1635;48.000;10.582;2022-10-31T00:53:45;8.70;99.90
3246;DHT22;1635;48.000;10.582;2022-10-31T00:56:13;8.60;99.90
3246;DHT22;1635;48.000;10.582;2022-10-31T00:58:42;8.60;99.90
3246;DHT22;1635;48.000;10.582;2022-10-31T01:01:17;8.50;99.90
3246;DHT22;1635;48.000;10.582;2022-10-31T01:03:46;8.40;99.90
3246;DHT22;1635;48.000;10.582;2022-10-31T01:06:14;8.40;99.90
3246;DHT22;1635;48.000;10.582;2022-10-31T01:08:42;8.30;99.90
3246;DHT22;1635;48.000;10.582;2022-10-31T01:11:21;8.30;99.90
3246;DHT22;1635;48.000;10.582;2022-10-31T01:13:51;8.40;99.90
3246;DHT22;1635;48.000;10.582;2022-10-31T01:16:22;8.30;99.90
3246;DHT22;1635;48.000;10.582;2022-10-31T01:18:51;8.20;99.90
3246;DHT22;1635;48.000;10.582;2022-10-31T01:21:22;8.30;99.90
3246;DHT22;1635;48.000;10.582;2022-10-31T01:23:53;8.30;99.90
3246;DHT22;1635;48.000;10.582;2022-10-31T01:26:24;8.30;99.90
3246;DHT22;1635;48.000;10.582;2022-10-31T01:29:01;8.20;99.90
3246;DHT22;1635;48.000;10.582;2022-10-31T01:31:32;8.20;99.90
3246;DHT22;1635;48.000;10.582;2022-10-31T01:34:01;8.30;99.90
3246;DHT22;1635;48.000;10.582;2022-10-31T01:36:36;8.30;99.90
3246;DHT22;1635;48.000;10.582;2022-10-31T01:39:10;8.30;99.90
3246;DHT22;1635;48.000;10.582;2022-10-31T01:41:42;8.20;99.90
3246;DHT22;1635;48.000;10.582;2022-10-31T01:47:03;8.10;99.90
3246;DHT22;1635;48.000;10.582;2022-10-31T01:49:40;8.10;99.90
3246;DHT22;1635;48.000;10.582;2022-10-31T01:54:51;8.00;99.90
3246;DHT22;1635;48.000;10.582;2022-10-31T01:57:22;8.10;99.90
3246;DHT22;1635;48.000;10.582;2022-10-31T01:59:55;8.20;99.90
3246;DHT22;1635;48.000;10.582;2022-10-31T02:02:27;8.30;99.90
3246;DHT22;1635;48.000;10.582;2022-10-31T02:04:56;8.30;99.90
3246;DHT22;1635;48.000;10.582;2022-10-31T02:07:32;8.20;99.90
3246;DHT22;1635;48.000;10.582;2022-10-31T02:10:02;8.20;99.90
3246;DHT22;1635;48.000;10.582;2022-10-31T02:12:32;8.10;99.90
3246;DHT22;1635;48.000;10.582;2022-10-31T02:15:01;8.10;99.90
3246;DHT22;1635;48.000;10.582;2022-10-31T02:17:29;8.20;99.90
3246;DHT22;1635;48.000;10.582;2022-10-31T02:29:09;8.00;99.90
3246;DHT22;1635;48.000;10.582;2022-10-31T02:32:03;8.00;99.90
3246;DHT22;1635;48.000;10.582;2022-10-31T02:37:24;8.10;99.90
3246;DHT22;1635;48.000;10.582;2022-10-31T02:40:24;8.20;99.90
3246;DHT22;1635;48.000;10.582;2022-10-31T02:46:48;8.50;99.90
3246;DHT22;1635;48.000;10.582;2022-10-31T02:49:47;8.50;99.90
3246;DHT22;1635;48.000;10.582;2022-10-31T02:52:27;8.40;99.90
3246;DHT22;1635;48.000;10.582;2022-10-31T02:58:11;8.50;99.90
3246;DHT22;1635;48.000;10.582;2022-10-31T03:03:56;8.60;99.90
3246;DHT22;1635;48.000;10.582;2022-10-31T03:09:25;8.70;99.90
3246;DHT22;1635;48.000;10.582;2022-10-31T03:14:41;8.70;99.90
3246;DHT22;1635;48.000;10.582;2022-10-31T03:17:17;8.70;99.90
3246;DHT22;1635;48.000;10.582;2022-10-31T03:19:49;8.70;99.90
3246;DHT22;1635;48.000;10.582;2022-10-31T03:22:29;8.50;99.90
3246;DHT22;1635;48.000;10.582;2022-10-31T03:25:02;8.40;99.90
3246;DHT22;1635;48.000;10.582;2022-10-31T03:27:32;8.40;99.90
3246;DHT22;1635;48.000;10.582;2022-10-31T03:30:03;8.30;99.90
3246;DHT22;1635;48.000;10.582;2022-10-31T03:32:45;8.20;99.90
3246;DHT22;1635;48.000;10.582;2022-10-31T03:35:18;8.10;99.90
3246;DHT22;1635;48.000;10.582;2022-10-31T03:37:49;8.00;99.90
3246;DHT22;1635;48.000;10.582;2022-10-31T03:40:21;7.90;99.90
3246;DHT22;1635;48.000;10.582;2022-10-31T03:43:05;7.80;99.90
3246;DHT22;1635;48.000;10.582;2022-10-31T03:45:40;7.80;99.90
3246;DHT22;1635;48.000;10.582;2022-10-31T03:48:10;7.80;99.90
3246;DHT22;1635;48.000;10.582;2022-10-31T03:57:01;7.60;99.90
3246;DHT22;1635;48.000;10.582;2022-10-31T03:59:41;7.50;99.90
3246;DHT22;1635;48.000;10.582;2022-10-31T04:02:16;7.50;99.90
3246;DHT22;1635;48.000;10.582;2022-10-31T04:04:46;7.40;99.90
3246;DHT22;1635;48.000;10.582;2022-10-31T04:07:16;7.40;99.90
3246;DHT22;1635;48.000;10.582;2022-10-31T04:09:46;7.30;99.90
3246;DHT22;1635;48.000;10.582;2022-10-31T04:12:16;7.30;99.90
3246;DHT22;1635;48.000;10.582;2022-10-31T04:15:21;7.40;99.90
3246;DHT22;1635;48.000;10.582;2022-10-31T04:17:53;7.50;99.90
3246;DHT22;1635;48.000;10.582;2022-10-31T04:20:32;7.60;99.90
3246;DHT22;1635;48.000;10.582;2022-10-31T04:23:02;7.50;99.90
3246;DHT22;1635;48.000;10.582;2022-10-31T04:25:31;7.40;99.90
3246;DHT22;1635;48.000;10.582;2022-10-31T04:28:01;7.30;99.90
3246;DHT22;1635;48.000;10.582;2022-10-31T04:30:30;7.20;99.90
3246;DHT22;1635;48.000;10.582;2022-10-31T04:32:59;7.10;99.90
3246;DHT22;1635;48.000;10.582;2022-10-31T04:35:28;7.10;99.90
3246;DHT22;1635;48.000;10.582;2022-10-31T04:37:56;7.00;99.90
3246;DHT22;1635;48.000;10.582;2022-10-31T04:40:24;7.00;99.90
3246;DHT22;1635;48.000;10.582;2022-10-31T04:42:52;7.00;99.90
3246;DHT22;1635;48.000;10.582;2022-10-31T04:45:20;7.00;99.90
3246;DHT22;1635;48.000;10.582;2022-10-31T04:47:51;7.00;99.90
3246;DHT22;1635;48.000;10.582;2022-10-31T04:50:19;7.00;99.90
3246;DHT22;1635;48.000;10.582;2022-10-31T04:52:48;7.00;99.90
3246;DHT22;1635;48.000;10.582;2022-10-31T04:55:20;6.90;99.90
3246;DHT22;1635;48.000;10.582;2022-10-31T04:58:09;6.90;99.90
3246;DHT22;1635;48.000;10.582;2022-10-31T05:00:37;6.90;99.90
3246;DHT22;1635;48.000;10.582;2022-10-31T05:03:06;7.00;99.90
3246;DHT22;1635;48.000;10.582;2022-10-31T05:05:34;7.10;99.90
3246;DHT22;1635;48.000;10.582;2022-10-31T05:08:04;7.10;99.90
3246;DHT22;1635;48.000;10.582;2022-10-31T05:10:33;7.10;99.90
3246;DHT22;1635;48.000;10.582;2022-10-31T05:13:03;7.10;99.90
3246;DHT22;1635;48.000;10.582;2022-10-31T05:15:54;7.10;99.90
3246;DHT22;1635;48.000;10.582;2022-10-31T05:18:47;7.10;99.90
3246;DHT22;1635;48.000;10.582;2022-10-31T05:21:15;7.00;99.90
3246;DHT22;1635;48.000;10.582;2022-10-31T05:23:52;7.00;99.90
3246;DHT22;1635;48.000;10.582;2022-10-31T05:26:23;7.00;99.90
3246;DHT22;1635;48.000;10.582;2022-10-31T05:28:51;7.00;99.90
3246;DHT22;1635;48.000;10.582;2022-10-31T05:31:20;7.00;99.90
3246;DHT22;1635;48.000;10.582;2022-10-31T05:33:50;6.90;99.90
3246;DHT22;1635;48.000;10.582;2022-10-31T05:36:38;6.90;99.90
3246;DHT22;1635;48.000;10.582;2022-10-31T05:39:16;6.90;99.90
3246;DHT22;1635;48.000;10.582;2022-10-31T05:41:50;6.80;99.90
3246;DHT22;1635;48.000;10.582;2022-10-31T05:44:21;6.80;99.90
3246;DHT22;1635;48.000;10.582;2022-10-31T05:47:09;6.90;99.90
3246;DHT22;1635;48.000;10.582;2022-10-31T05:50:06;6.80;99.90
3246;DHT22;1635;48.000;10.582;2022-10-31T05:53:02;6.80;99.90
3246;DHT22;1635;48.000;10.582;2022-10-31T05:55:35;6.80;99.90
3246;DHT22;1635;48.000;10.582;2022-10-31T05:58:13;6.80;99.90
3246;DHT22;1635;48.000;10.582;2022-10-31T06:00:49;6.80;99.90
3246;DHT22;1635;48.000;10.582;2022-10-31T06:03:17;6.80;99.90
3246;DHT22;1635;48.000;10.582;2022-10-31T06:05:59;6.80;99.90
3246;DHT22;1635;48.000;10.582;2022-10-31T06:08:33;6.80;99.90
3246;DHT22;1635;48.000;10.582;2022-10-31T06:11:05;6.80;99.90
3246;DHT22;1635;48.000;10.582;2022-10-31T06:13:51;6.90;99.90
3246;DHT22;1635;48.000;10.582;2022-10-31T06:16:24;6.90;99.90
3246;DHT22;1635;48.000;10.582;2022-10-31T06:18:54;7.10;99.90
3246;DHT22;1635;48.000;10.582;2022-10-31T06:21:21;7.00;99.90
3246;DHT22;1635;48.000;10.582;2022-10-31T06:23:51;7.00;99.90
3246;DHT22;1635;48.000;10.582;2022-10-31T06:26:47;6.90;99.90
3246;DHT22;1635;48.000;10.582;2022-10-31T06:29:15;6.90;99.90
3246;DHT22;1635;48.000;10.582;2022-10-31T06:32:05;6.90;99.90
3246;DHT22;1635;48.000;10.582;2022-10-31T06:34:40;7.00;99.90
3246;DHT22;1635;48.000;10.582;2022-10-31T06:37:12;6.90;99.90
3246;DHT22;1635;48.000;10.582;2022-10-31T06:39:44;6.90;99.90
3246;DHT22;1635;48.000;10.582;2022-10-31T06:42:16;7.00;99.90
3246;DHT22;1635;48.000;10.582;2022-10-31T06:44:44;7.00;99.90
3246;DHT22;1635;48.000;10.582;2022-10-31T06:47:53;7.00;99.90
3246;DHT22;1635;48.000;10.582;2022-10-31T06:51:02;7.00;99.90
3246;DHT22;1635;48.000;10.582;2022-10-31T06:53:30;7.10;99.90
3246;DHT22;1635;48.000;10.582;2022-10-31T06:55:58;7.10;99.90
3246;DHT22;1635;48.000;10.582;2022-10-31T06:58:26;7.10;99.90
3246;DHT22;1635;48.000;10.582;2022-10-31T07:01:02;7.20;99.90
3246;DHT22;1635;48.000;10.582;2022-10-31T07:03:31;7.20;99.90
3246;DHT22;1635;48.000;10.582;2022-10-31T07:05:59;7.40;99.90
3246;DHT22;1635;48.000;10.582;2022-10-31T07:08:28;7.50;99.90
3246;DHT22;1635;48.000;10.582;2022-10-31T07:10:57;7.60;99.90
3246;DHT22;1635;48.000;10.582;2022-10-31T07:13:27;7.70;99.90
3246;DHT22;1635;48.000;10.582;2022-10-31T07:16:05;7.80;99.90
3246;DHT22;1635;48.000;10.582;2022-10-31T07:18:36;7.90;99.90
3246;DHT22;1635;48.000;10.582;2022-10-31T07:21:04;8.10;99.90
3246;DHT22;1635;48.000;10.582;2022-10-31T07:23:32;8.30;99.90
3246;DHT22;1635;48.000;10.582;2022-10-31T07:26:20;8.50;99.90
3246;DHT22;1635;48.000;10.582;2022-10-31T07:28:49;8.60;99.90
3246;DHT22;1635;48.000;10.582;2022-10-31T07:31:21;8.80;99.90
3246;DHT22;1635;48.000;10.582;2022-10-31T07:33:50;9.00;99.90
3246;DHT22;1635;48.000;10.582;2022-10-31T07:36:27;9.20;99.90
3246;DHT22;1635;48.000;10.582;2022-10-31T07:39:05;9.60;99.90
3246;DHT22;1635;48.000;10.582;2022-10-31T07:41:35;10.10;99.90
3246;DHT22;1635;48.000;10.582;2022-10-31T07:44:04;10.80;99.90
3246;DHT22;1635;48.000;10.582;2022-10-31T07:46:50;11.20;99.90
3246;DHT22;1635;48.000;10.582;2022-10-31T07:49:21;11.40;99.90
3246;DHT22;1635;48.000;10.582;2022-10-31T07:52:08;11.90;99.90
3246;DHT22;1635;48.000;10.582;2022-10-31T07:54:58;12.60;99.90
3246;DHT22;1635;48.000;10.582;2022-10-31T07:57:26;13.10;99.90
3246;DHT22;1635;48.000;10.582;2022-10-31T08:00:01;13.30;99.90
3246;DHT22;1635;48.000;10.582;2022-10-31T08:02:30;13.70;99.90
3246;DHT22;1635;48.000;10.582;2022-10-31T08:05:24;14.00;99.90
3246;DHT22;1635;48.000;10.582;2022-10-31T08:08:10;14.50;99.90
3246;DHT22;1635;48.000;10.582;2022-10-31T08:10:38;15.00;99.90
3246;DHT22;1635;48.000;10.582;2022-10-31T08:13:13;15.40;99.90
3246;DHT22;1635;48.000;10.582;2022-10-31T08:15:45;15.60;99.90
3246;DHT22;1635;48.000;10.582;2022-10-31T08:18:18;16.10;99.90
3246;DHT22;1635;48.000;10.582;2022-10-31T08:20:46;16.10;99.90
3246;DHT22;1635;48.000;10.582;2022-10-31T08:23:14;15.90;99.90
3246;DHT22;1635;48.000;10.582;2022-10-31T08:25:45;16.50;99.90
3246;DHT22;1635;48.000;10.582;2022-10-31T08:28:15;17.40;99.90
3246;DHT22;1635;48.000;10.582;2022-10-31T08:30:45;18.30;99.90
3246;DHT22;1635;48.000;10.582;2022-10-31T08:33:34;19.00;99.90
3246;DHT22;1635;48.000;10.582;2022-10-31T08:36:27;19.90;99.90
3246;DHT22;1635;48.000;10.582;2022-10-31T08:39:15;20.50;99.90
3246;DHT22;1635;48.000;10.582;2022-10-31T08:41:44;20.90;99.90
3246;DHT22;1635;48.000;10.582;2022-10-31T08:44:13;21.10;99.90
3246;DHT22;1635;48.000;10.582;2022-10-31T08:46:45;21.30;99.90
3246;DHT22;1635;48.000;10.582;2022-10-31T08:49:14;21.40;99.90
3246;DHT22;1635;48.000;10.582;2022-10-31T08:51:51;21.60;99.90
3246;DHT22;1635;48.000;10.582;2022-10-31T08:54:21;22.00;99.90
3246;DHT22;1635;48.000;10.582;2022-10-31T08:56:55;22.30;99.90
3246;DHT22;1635;48.000;10.582;2022-10-31T08:59:37;22.20;99.90
3246;DHT22;1635;48.000;10.582;2022-10-31T09:02:24;21.70;99.90
3246;DHT22;1635;48.000;10.582;2022-10-31T09:04:57;21.20;99.90
3246;DHT22;1635;48.000;10.582;2022-10-31T09:07:30;20.70;99.90
3246;DHT22;1635;48.000;10.582;2022-10-31T09:10:01;20.30;99.90
3246;DHT22;1635;48.000;10.582;2022-10-31T09:12:40;19.90;99.90
3246;DHT22;1635;48.000;10.582;2022-10-31T09:15:26;19.60;99.90
3246;DHT22;1635;48.000;10.582;2022-10-31T09:18:15;19.20;99.90
3246;DHT22;1635;48.000;10.582;2022-10-31T09:20:52;18.80;99.90
3246;DHT22;1635;48.000;10.582;2022-10-31T09:23:22;18.40;99.90
3246;DHT22;1635;48.000;10.582;2022-10-31T09:25:52;18.20;99.90
3246;DHT22;1635;48.000;10.582;2022-10-31T09:28:44;17.90;99.90
3246;DHT22;1635;48.000;10.582;2022-10-31T09:31:23;17.90;99.90
3246;DHT22;1635;48.000;10.582;2022-10-31T09:34:02;18.10;99.90
3246;DHT22;1635;48.000;10.582;2022-10-31T09:36:37;17.90;99.90
3246;DHT22;1635;48.000;10.582;2022-10-31T09:39:13;17.70;99.90
3246;DHT22;1635;48.000;10.582;2022-10-31T09:50:48;17.30;99.90
3246;DHT22;1635;48.000;10.582;2022-10-31T09:53:57;17.40;99.90
3246;DHT22;1635;48.000;10.582;2022-10-31T09:56:28;17.40;99.90
3246;DHT22;1635;48.000;10.582;2022-10-31T09:59:00;17.30;99.90
3246;DHT22;1635;48.000;10.582;2022-10-31T10:02:01;17.40;99.90
3246;DHT22;1635;48.000;10.582;2022-10-31T10:04:43;17.50;99.90
3246;DHT22;1635;48.000;10.582;2022-10-31T10:16:42;17.80;99.90
3246;DHT22;1635;48.000;10.582;2022-10-31T10:19:43;17.90;99.90
3246;DHT22;1635;48.000;10.582;2022-10-31T10:25:22;17.90;99.90
3246;DHT22;1635;48.000;10.582;2022-10-31T10:30:59;18.00;99.90
3246;DHT22;1635;48.000;10.582;2022-10-31T10:36:37;18.40;99.90
3246;DHT22;1635;48.000;10.582;2022-10-31T10:39:45;18.50;99.90
3246;DHT22;1635;48.000;10.582;2022-10-31T10:42:15;18.60;99.90
3246;DHT22;1635;48.000;10.582;2022-10-31T10:45:19;19.00;99.90
3246;DHT22;1635;48.000;10.582;2022-10-31T10:48:41;19.40;99.90
3246;DHT22;1635;48.000;10.582;2022-10-31T10:51:21;19.60;99.90
3246;DHT22;1635;48.000;10.582;2022-10-31T10:57:29;20.00;99.90
3246;DHT22;1635;48.000;10.582;2022-10-31T11:00:16;20.10;99.90
3246;DHT22;1635;48.000;10.582;2022-10-31T11:02:45;20.20;99.90
3246;DHT22;1635;48.000;10.582;2022-10-31T11:05:38;20.50;99.90
3246;DHT22;1635;48.000;10.582;2022-10-31T11:08:08;20.50;99.90
3246;DHT22;1635;48.000;10.582;2022-10-31T11:10:36;20.50;99.90
3246;DHT22;1635;48.000;10.582;2022-10-31T11:18:37;20.90;99.90
3246;DHT22;1635;48.000;10.582;2022-10-31T11:21:05;21.00;99.90
3246;DHT22;1635;48.000;10.582;2022-10-31T11:23:35;21.10;99.90
3246;DHT22;1635;48.000;10.582;2022-10-31T11:26:05;21.10;99.90
3246;DHT22;1635;48.000;10.582;2022-10-31T11:28:35;21.30;99.90
3246;DHT22;1635;48.000;10.582;2022-10-31T11:31:07;21.50;99.90
3246;DHT22;1635;48.000;10.582;2022-10-31T11:33:39;21.50;99.90
3246;DHT22;1635;48.000;10.582;2022-10-31T11:36:22;21.80;99.90
3246;DHT22;1635;48.000;10.582;2022-10-31T11:38:51;22.20;99.90
3246;DHT22;1635;48.000;10.582;2022-10-31T11:46:34;24.00;99.90
3246;DHT22;1635;48.000;10.582;2022-10-31T11:49:03;24.80;99.90
3246;DHT22;1635;48.000;10.582;2022-10-31T11:51:34;26.20;99.90
3246;DHT22;1635;48.000;10.582;2022-10-31T11:54:22;27.40;99.90
3246;DHT22;1635;48.000;10.582;2022-10-31T11:56:50;28.50;99.90
3246;DHT22;1635;48.000;10.582;2022-10-31T11:59:29;28.90;99.90
3246;DHT22;1635;48.000;10.582;2022-10-31T12:02:00;28.90;99.90
3246;DHT22;1635;48.000;10.582;2022-10-31T12:05:02;29.40;99.90
3246;DHT22;1635;48.000;10.582;2022-10-31T12:07:32;28.80;99.90
3246;DHT22;1635;48.000;10.582;2022-10-31T12:10:10;28.30;99.90
3246;DHT22;1635;48.000;10.582;2022-10-31T12:13:20;28.20;99.90
3246;DHT22;1635;48.000;10.582;2022-10-31T12:18:50;28.20;99.90
3246;DHT22;1635;48.000;10.582;2022-10-31T12:24:22;26.10;99.90
3246;DHT22;1635;48.000;10.582;2022-10-31T12:27:09;25.90;99.90
3246;DHT22;1635;48.000;10.582;2022-10-31T12:30:08;25.90;99.90
3246;DHT22;1635;48.000;10.582;2022-10-31T12:41:44;25.80;99.90
3246;DHT22;1635;48.000;10.582;2022-10-31T12:47:44;26.10;99.90
3246;DHT22;1635;48.000;10.582;2022-10-31T12:53:45;26.80;99.90
3246;DHT22;1635;48.000;10.582;2022-10-31T12:56:40;28.00;99.90
3246;DHT22;1635;48.000;10.582;2022-10-31T13:02:26;29.20;99.90
3246;DHT22;1635;48.000;10.582;2022-10-31T13:05:05;28.60;99.90
3246;DHT22;1635;48.000;10.582;2022-10-31T13:10:42;29.00;99.90
3246;DHT22;1635;48.000;10.582;2022-10-31T13:13:37;29.90;99.90
3246;DHT22;1635;48.000;10.582;2022-10-31T13:16:20;29.50;99.90
3246;DHT22;1635;48.000;10.582;2022-10-31T13:19:08;28.20;99.90
3246;DHT22;1635;48.000;10.582;2022-10-31T13:25:03;26.50;99.90
3246;DHT22;1635;48.000;10.582;2022-10-31T13:27:46;24.90;99.90
3246;DHT22;1635;48.000;10.582;2022-10-31T13:33:13;23.50;99.90
3246;DHT22;1635;48.000;10.582;2022-10-31T13:44:05;22.60;99.90
3246;DHT22;1635;48.000;10.582;2022-10-31T13:46:41;22.50;99.90
3246;DHT22;1635;48.000;10.582;2022-10-31T13:54:50;22.50;99.90
3246;DHT22;1635;48.000;10.582;2022-10-31T13:57:37;23.00;99.90
3246;DHT22;1635;48.000;10.582;2022-10-31T14:00:24;23.10;99.90
3246;DHT22;1635;48.000;10.582;2022-10-31T14:02:56;23.80;99.90
3246;DHT22;1635;48.000;10.582;2022-10-31T14:05:31;23.90;99.90
3246;DHT22;1635;48.000;10.582;2022-10-31T14:08:04;24.20;99.90
3246;DHT22;1635;48.000;10.582;2022-10-31T14:10:38;23.80;99.90
3246;DHT22;1635;48.000;10.582;2022-10-31T14:13:29;23.50;99.90
3246;DHT22;1635;48.000;10.582;2022-10-31T14:16:06;22.90;99.90
3246;DHT22;1635;48.000;10.582;2022-10-31T14:18:50;22.30;99.90
3246;DHT22;1635;48.000;10.582;2022-10-31T14:21:28;21.70;99.90
3246;DHT22;1635;48.000;10.582;2022-10-31T14:23:57;21.20;99.90
3246;DHT22;1635;48.000;10.582;2022-10-31T14:26:33;20.90;99.90
3246;DHT22;1635;48.000;10.582;2022-10-31T14:29:31;20.90;99.90
3246;DHT22;1635;48.000;10.582;2022-10-31T14:34:55;20.70;99.90
3246;DHT22;1635;48.000;10.582;2022-10-31T14:49:12;19.20;99.90
3246;DHT22;1635;48.000;10.582;2022-10-31T14:51:44;19.10;99.90
3246;DHT22;1635;48.000;10.582;2022-10-31T14:54:18;18.90;99.90
3246;DHT22;1635;48.000;10.582;2022-10-31T14:57:12;18.90;99.90
3246;DHT22;1635;48.000;10.582;2022-10-31T14:59:46;18.90;99.90
3246;DHT22;1635;48.000;10.582;2022-10-31T15:02:36;18.90;99.90
3246;DHT22;1635;48.000;10.582;2022-10-31T15:05:10;18.70;99.90
3246;DHT22;1635;48.000;10.582;2022-10-31T15:07:59;18.60;99.90
3246;DHT22;1635;48.000;10.582;2022-10-31T15:10:33;18.50;99.90
3246;DHT22;1635;48.000;10.582;2022-10-31T15:13:17;18.30;99.90
3246;DHT22;1635;48.000;10.582;2022-10-31T15:15:49;18.10;99.90
3246;DHT22;1635;48.000;10.582;2022-10-31T15:18:25;17.90;99.90
3246;DHT22;1635;48.000;10.582;2022-10-31T15:20:55;17.80;99.90
3246;DHT22;1635;48.000;10.582;2022-10-31T15:23:28;17.70;99.90
3246;DHT22;1635;48.000;10.582;2022-10-31T15:26:00;17.50;99.90
3246;DHT22;1635;48.000;10.582;2022-10-31T15:28:29;17.30;99.90
3246;DHT22;1635;48.000;10.582;2022-10-31T15:31:00;17.20;99.90
3246;DHT22;1635;48.000;10.582;2022-10-31T15:33:40;17.00;99.90
3246;DHT22;1635;48.000;10.582;2022-10-31T15:36:21;16.80;99.90
3246;DHT22;1635;48.000;10.582;2022-10-31T15:38:58;16.60;99.90
3246;DHT22;1635;48.000;10.582;2022-10-31T15:41:39;16.50;99.90
3246;DHT22;1635;48.000;10.582;2022-10-31T15:44:39;16.40;99.90
3246;DHT22;1635;48.000;10.582;2022-10-31T15:47:16;16.10;99.90
3246;DHT22;1635;48.000;10.582;2022-10-31T15:52:36;15.80;99.90
3246;DHT22;1635;48.000;10.582;2022-10-31T15:55:36;15.60;99.90
3246;DHT22;1635;48.000;10.582;2022-10-31T15:58:16;15.30;99.90
3246;DHT22;1635;48.000;10.582;2022-10-31T16:01:01;15.10;99.90
3246;DHT22;1635;48.000;10.582;2022-10-31T16:03:33;14.90;99.90
3246;DHT22;1635;48.000;10.582;2022-10-31T16:06:05;14.80;99.90
3246;DHT22;1635;48.000;10.582;2022-10-31T16:08:45;14.60;99.90
3246;DHT22;1635;48.000;10.582;2022-10-31T16:14:06;14.30;99.90
3246;DHT22;1635;48.000;10.582;2022-10-31T16:16:42;14.10;99.90
3246;DHT22;1635;48.000;10.582;2022-10-31T16:19:33;14.00;99.90
3246;DHT22;1635;48.000;10.582;2022-10-31T16:22:13;13.80;99.90
3246;DHT22;1635;48.000;10.582;2022-10-31T16:24:54;13.60;99.90
3246;DHT22;1635;48.000;10.582;2022-10-31T16:27:23;13.40;99.90
3246;DHT22;1635;48.000;10.582;2022-10-31T16:29:57;13.30;99.90
3246;DHT22;1635;48.000;10.582;2022-10-31T16:32:59;13.30;99.90
3246;DHT22;1635;48.000;10.582;2022-10-31T16:35:38;13.20;99.90
3246;DHT22;1635;48.000;10.582;2022-10-31T16:38:07;13.10;99.90
3246;DHT22;1635;48.000;10.582;2022-10-31T16:40:38;12.90;99.90
3246;DHT22;1635;48.000;10.582;2022-10-31T16:43:11;12.70;99.90
3246;DHT22;1635;48.000;10.582;2022-10-31T16:50:10;12.50;99.90
3246;DHT22;1635;48.000;10.582;2022-10-31T16:52:39;12.60;99.90
3246;DHT22;1635;48.000;10.582;2022-10-31T16:55:29;12.60;99.90
3246;DHT22;1635;48.000;10.582;2022-10-31T16:57:58;12.50;99.90
3246;DHT22;1635;48.000;10.582;2022-10-31T17:00:28;12.30;99.90
3246;DHT22;1635;48.000;10.582;2022-10-31T17:02:56;12.10;99.90
3246;DHT22;1635;48.000;10.582;2022-10-31T17:05:25;12.10;99.90
3246;DHT22;1635;48.000;10.582;2022-10-31T17:08:00;12.10;99.90
3246;DHT22;1635;48.000;10.582;2022-10-31T17:10:29;12.10;99.90
3246;DHT22;1635;48.000;10.582;2022-10-31T17:12:57;12.00;99.90
3246;DHT22;1635;48.000;10.582;2022-10-31T17:15:29;12.00;99.90
3246;DHT22;1635;48.000;10.582;2022-10-31T17:17:59;12.10;99.90
3246;DHT22;1635;48.000;10.582;2022-10-31T17:20:29;12.00;99.90
3246;DHT22;1635;48.000;10.582;2022-10-31T17:22:58;12.00;99.90
3246;DHT22;1635;48.000;10.582;2022-10-31T17:25:32;11.90;99.90
3246;DHT22;1635;48.000;10.582;2022-10-31T17:28:01;11.80;99.90
3246;DHT22;1635;48.000;10.582;2022-10-31T17:30:31;11.80;99.90
3246;DHT22;1635;48.000;10.582;2022-10-31T17:33:01;11.60;99.90
3246;DHT22;1635;48.000;10.582;2022-10-31T17:35:29;11.40;99.90
3246;DHT22;1635;48.000;10.582;2022-10-31T17:37:57;11.30;99.90
3246;DHT22;1635;48.000;10.582;2022-10-31T17:40:25;11.20;99.90
3246;DHT22;1635;48.000;10.582;2022-10-31T17:42:56;11.20;99.90
3246;DHT22;1635;48.000;10.582;2022-10-31T17:45:25;11.30;99.90
3246;DHT22;1635;48.000;10.582;2022-10-31T17:47:53;11.30;99.90
3246;DHT22;1635;48.000;10.582;2022-10-31T17:50:24;11.30;99.90
3246;DHT22;1635;48.000;10.582;2022-10-31T17:52:52;11.30;99.90
3246;DHT22;1635;48.000;10.582;2022-10-31T17:55:20;11.10;99.90
3246;DHT22;1635;48.000;10.582;2022-10-31T17:57:48;11.00;99.90
3246;DHT22;1635;48.000;10.582;2022-10-31T18:00:19;11.00;99.90
3246;DHT22;1635;48.000;10.582;2022-10-31T18:02:51;11.00;99.90
3246;DHT22;1635;48.000;10.582;2022-10-31T18:05:19;11.00;99.90
3246;DHT22;1635;48.000;10.582;2022-10-31T18:07:49;10.80;99.90
3246;DHT22;1635;48.000;10.582;2022-10-31T18:10:17;10.70;99.90
3246;DHT22;1635;48.000;10.582;2022-10-31T18:12:45;10.60;99.90
3246;DHT22;1635;48.000;10.582;2022-10-31T18:15:15;10.50;99.90
3246;DHT22;1635;48.000;10.582;2022-10-31T18:17:45;10.60;99.90
3246;DHT22;1635;48.000;10.582;2022-10-31T18:20:13;10.70;99.90
3246;DHT22;1635;48.000;10.582;2022-10-31T18:22:42;10.60;99.90
3246;DHT22;1635;48.000;10.582;2022-10-31T18:25:10;10.50;99.90
3246;DHT22;1635;48.000;10.582;2022-10-31T18:27:37;10.50;99.90
3246;DHT22;1635;48.000;10.582;2022-10-31T18:30:05;10.60;99.90
3246;DHT22;1635;48.000;10.582;2022-10-31T18:32:35;10.50;99.90
3246;DHT22;1635;48.000;10.582;2022-10-31T18:35:03;10.40;99.90
3246;DHT22;1635;48.000;10.582;2022-10-31T18:37:31;10.40;99.90
3246;DHT22;1635;48.000;10.582;2022-10-31T18:39:59;10.50;99.90
3246;DHT22;1635;48.000;10.582;2022-10-31T18:42:28;10.40;99.90
3246;DHT22;1635;48.000;10.582;2022-10-31T18:44:56;10.30;99.90
3246;DHT22;1635;48.000;10.582;2022-10-31T18:47:33;10.20;99.90
3246;DHT22;1635;48.000;10.582;2022-10-31T18:50:01;10.10;99.90
3246;DHT22;1635;48.000;10.582;2022-10-31T18:52:30;10.00;99.90
3246;DHT22;1635;48.000;10.582;2022-10-31T18:54:58;10.00;99.90
3246;DHT22;1635;48.000;10.582;2022-10-31T18:57:27;10.00;99.90
3246;DHT22;1635;48.000;10.582;2022-10-31T18:59:55;10.10;99.90
3246;DHT22;1635;48.000;10.582;2022-10-31T19:02:23;10.00;99.90
3246;DHT22;1635;48.000;10.582;2022-10-31T19:04:51;10.00;99.90
3246;DHT22;1635;48.000;10.582;2022-10-31T19:07:19;10.10;99.90
3246;DHT22;1635;48.000;10.582;2022-10-31T19:09:48;10.20;99.90
3246;DHT22;1635;48.000;10.582;2022-10-31T19:12:18;10.30;99.90
3246;DHT22;1635;48.000;10.582;2022-10-31T19:14:46;10.40;99.90
3246;DHT22;1635;48.000;10.582;2022-10-31T19:17:16;10.50;99.90